Terminal Aerodrome Forecast
Issued by NWS

Home | Current Version | Previous Version | Text Only | Print | Product List | Glossary On
Versions: 1 2 3 4 5 6 7 8 9 10 11 12 13 14 15 16 17 18 19 20 21 22 23
000
FTUS43 KPAH 050314 AAB
TAFCGI
TAF AMD
KCGI 050314Z 0503/0524 01014G21KT 1 1/2SM -SN BR OVC013
      TEMPO 0503/0504 3/4SM -SN BR VV009
     FM050500 01013G19KT 4SM -SN BR OVC012
     FM050700 01010KT 6SM BR SCT025 OVC150
     FM051600 36010KT P6SM BKN015=

USA.gov is the U.S. government's official web portal to all federal, state and local government web resources and services.